Time;durP1;ratioP1;P1;durP2;ratioP2;P2;SDS_P1;SDS_P2;PMS_P1;PMS_P2;Temp;Humidity;BMP_temperature;BMP_pressure;BME280_temperature;BME280_humidity;BME280_pressure;Samples;Min_cycle;Max_cycle;Signal;HPM_P1;HPM_P2
2023/01/29 00:01:45;;;;;;;5.60;4.50;;;-0.20;99.90;;;;;;4971956;28;20204;-69
2023/01/29 00:04:12;;;;;;;7.25;5.20;;;-0.20;99.90;;;;;;4971776;28;20211;-70
2023/01/29 00:06:40;;;;;;;5.88;4.47;;;-0.20;99.90;;;;;;4971419;28;20310;-69
2023/01/29 00:09:06;;;;;;;5.72;4.68;;;-0.20;99.90;;;;;;4971146;28;20663;-70
2023/01/29 00:11:33;;;;;;;6.70;6.00;;;-0.20;99.90;;;;;;4972321;28;20204;-70
2023/01/29 00:14:00;;;;;;;5.22;4.32;;;-0.20;99.90;;;;;;4971106;28;20207;-70
2023/01/29 00:16:27;;;;;;;4.65;4.15;;;-0.20;99.90;;;;;;4972319;28;20714;-70
2023/01/29 00:18:54;;;;;;;8.93;5.43;;;-0.20;99.90;;;;;;4971025;28;20722;-70
2023/01/29 00:21:22;;;;;;;6.40;5.32;;;-0.20;99.90;;;;;;4971233;28;20203;-69
2023/01/29 00:23:51;;;;;;;8.05;4.30;;;-0.20;99.90;;;;;;4971527;28;20204;-70
2023/01/29 00:26:18;;;;;;;7.88;4.40;;;-0.20;99.90;;;;;;4971300;28;20297;-70
2023/01/29 00:28:44;;;;;;;6.72;5.20;;;-0.10;99.90;;;;;;4971297;28;20206;-70
2023/01/29 00:31:13;;;;;;;7.05;5.38;;;-0.10;99.90;;;;;;4971584;28;20204;-69
2023/01/29 00:33:40;;;;;;;5.90;5.15;;;-0.10;99.90;;;;;;4971228;28;20295;-71
2023/01/29 00:36:10;;;;;;;5.95;4.30;;;-0.10;99.90;;;;;;4971242;28;20247;-71
2023/01/29 00:38:38;;;;;;;7.45;5.15;;;0.00;99.90;;;;;;4970388;28;20467;-71
2023/01/29 00:46:45;;;;;;;4.85;3.72;;;0.00;99.90;;;;;;4916085;28;20368;-70
2023/01/29 00:49:11;;;;;;;7.05;4.93;;;0.00;99.90;;;;;;4970383;28;20204;-70
2023/01/29 00:51:39;;;;;;;6.00;4.60;;;0.00;99.90;;;;;;4970599;28;20203;-70
2023/01/29 00:54:06;;;;;;;6.90;4.28;;;0.00;99.90;;;;;;4970860;28;20199;-71
2023/01/29 00:56:36;;;;;;;5.40;4.20;;;0.00;99.90;;;;;;4970636;28;20223;-70
2023/01/29 00:59:04;;;;;;;6.93;4.90;;;0.00;99.90;;;;;;4970280;28;20231;-70
2023/01/29 01:04:15;;;;;;;5.72;3.97;;;0.00;99.90;;;;;;4970027;28;20202;-70
2023/01/29 01:06:42;;;;;;;4.50;3.88;;;0.00;99.90;;;;;;4970596;28;20230;-70
2023/01/29 01:11:56;;;;;;;7.15;4.03;;;-0.10;99.90;;;;;;4970281;28;20242;-70
2023/01/29 01:14:23;;;;;;;6.90;4.88;;;0.00;99.90;;;;;;4970893;28;20219;-71
2023/01/29 01:16:50;;;;;;;7.00;4.72;;;-0.10;99.90;;;;;;4970465;28;20226;-70
2023/01/29 01:19:17;;;;;;;6.85;4.63;;;-0.10;99.90;;;;;;4969794;28;20322;-70
2023/01/29 01:21:46;;;;;;;5.90;4.35;;;0.00;99.90;;;;;;4970533;28;20204;-70
2023/01/29 01:24:13;;;;;;;5.47;4.55;;;0.00;99.90;;;;;;4972008;28;20672;-70
2023/01/29 01:26:40;;;;;;;4.72;3.80;;;0.00;99.90;;;;;;4972059;28;20220;-71
2023/01/29 01:29:08;;;;;;;5.85;4.30;;;0.00;99.90;;;;;;4971449;28;20555;-70
2023/01/29 01:31:35;;;;;;;5.38;3.83;;;-0.10;99.90;;;;;;4971859;28;20208;-70
2023/01/29 01:34:01;;;;;;;5.45;4.63;;;-0.10;99.90;;;;;;4960576;28;20200;-70
2023/01/29 01:36:28;;;;;;;4.80;3.80;;;0.00;99.90;;;;;;4952592;29;20220;-70
2023/01/29 01:38:55;;;;;;;4.18;3.40;;;-0.10;99.90;;;;;;4952009;29;20200;-70
2023/01/29 01:41:22;;;;;;;3.85;3.45;;;-0.10;99.90;;;;;;4952505;29;20209;-69
2023/01/29 01:43:52;;;;;;;6.95;4.30;;;-0.10;99.90;;;;;;4952564;29;20211;-70
2023/01/29 01:46:21;;;;;;;5.57;4.18;;;-0.10;99.90;;;;;;4952369;29;20782;-70
2023/01/29 01:48:51;;;;;;;6.45;4.43;;;0.00;99.90;;;;;;4952051;29;20208;-70
2023/01/29 01:51:19;;;;;;;7.80;4.85;;;0.00;99.90;;;;;;4952456;29;20220;-70
2023/01/29 01:53:52;;;;;;;3.85;3.45;;;0.00;99.90;;;;;;4952717;29;20672;-70
2023/01/29 01:56:23;;;;;;;4.40;3.80;;;0.00;99.90;;;;;;4952518;29;20224;-70
2023/01/29 01:58:53;;;;;;;5.07;3.83;;;0.00;99.90;;;;;;4951891;29;20235;-70
2023/01/29 02:01:26;;;;;;;4.35;3.60;;;-0.10;99.90;;;;;;4952220;29;20211;-70
2023/01/29 02:09:35;;;;;;;5.03;3.90;;;-0.10;99.90;;;;;;4951870;29;20275;-70
2023/01/29 02:12:03;;;;;;;4.28;3.10;;;-0.10;99.90;;;;;;4952229;29;20204;-70
2023/01/29 02:14:30;;;;;;;4.28;3.88;;;-0.10;99.90;;;;;;4952469;29;20562;-70
2023/01/29 02:17:00;;;;;;;5.90;3.85;;;-0.10;99.90;;;;;;4951991;29;20324;-70
2023/01/29 02:19:38;;;;;;;5.55;3.95;;;-0.10;99.90;;;;;;4951501;29;20228;-69
2023/01/29 02:22:35;;;;;;;3.92;3.53;;;-0.10;99.90;;;;;;4952175;29;20224;-69
2023/01/29 02:25:35;;;;;;;5.72;4.20;;;-0.10;99.90;;;;;;4951589;29;20587;-69
2023/01/29 02:28:25;;;;;;;4.97;3.80;;;-0.10;99.90;;;;;;4951930;29;20204;-69
2023/01/29 02:31:01;;;;;;;4.78;3.55;;;-0.20;99.90;;;;;;4951993;29;20200;-70
2023/01/29 02:33:39;;;;;;;4.68;3.92;;;-0.20;99.90;;;;;;4952131;29;20211;-69
2023/01/29 02:36:15;;;;;;;3.40;2.80;;;-0.20;99.90;;;;;;4951982;29;20707;-69
2023/01/29 02:38:50;;;;;;;4.03;3.33;;;-0.20;99.90;;;;;;4951413;29;20209;-69
2023/01/29 02:41:27;;;;;;;4.90;3.92;;;-0.20;99.90;;;;;;4952155;29;20228;-69
2023/01/29 02:44:03;;;;;;;5.10;3.80;;;-0.20;99.90;;;;;;4954038;28;20208;-70
2023/01/29 02:46:35;;;;;;;4.35;3.35;;;-0.20;99.90;;;;;;4955523;29;20607;-69
2023/01/29 02:49:10;;;;;;;5.03;4.05;;;-0.30;99.90;;;;;;4954939;29;20811;-69
2023/01/29 02:51:43;;;;;;;4.35;3.65;;;-0.20;99.90;;;;;;4955481;29;20585;-69
2023/01/29 02:54:20;;;;;;;4.63;3.40;;;-0.20;99.90;;;;;;4955253;29;20215;-69
2023/01/29 02:56:52;;;;;;;5.53;3.40;;;-0.20;99.90;;;;;;4955221;29;20232;-70
2023/01/29 02:59:24;;;;;;;6.35;4.10;;;-0.20;99.90;;;;;;4955099;29;20212;-69
2023/01/29 03:01:56;;;;;;;4.38;3.70;;;-0.30;99.90;;;;;;4955164;29;20204;-70
2023/01/29 03:04:29;;;;;;;4.53;4.05;;;-0.30;99.90;;;;;;4955458;29;20679;-70
2023/01/29 03:07:01;;;;;;;5.20;3.55;;;-0.30;99.90;;;;;;4955226;29;20232;-70
2023/01/29 03:09:32;;;;;;;5.25;4.20;;;-0.20;99.90;;;;;;4955045;29;20215;-70
2023/01/29 03:12:17;;;;;;;4.88;3.47;;;-0.30;99.90;;;;;;4955427;29;20211;-70
2023/01/29 03:17:35;;;;;;;4.60;3.58;;;-0.30;99.90;;;;;;4954356;29;20385;-69
2023/01/29 03:20:06;;;;;;;5.28;3.78;;;-0.30;99.90;;;;;;4954580;29;20586;-70
2023/01/29 03:22:34;;;;;;;5.05;3.80;;;-0.30;99.90;;;;;;4955221;29;20240;-69
2023/01/29 03:33:28;;;;;;;3.75;2.78;;;-0.40;99.90;;;;;;4954783;29;20204;-70
2023/01/29 03:36:01;;;;;;;4.30;3.90;;;-0.40;99.90;;;;;;4954449;28;20241;-70
2023/01/29 03:38:28;;;;;;;4.47;3.47;;;-0.40;99.90;;;;;;4954374;29;20201;-70
2023/01/29 03:40:59;;;;;;;3.80;3.40;;;-0.40;99.90;;;;;;4954389;29;20252;-70
2023/01/29 03:43:32;;;;;;;4.05;3.63;;;-0.40;99.90;;;;;;4954768;29;20215;-70
2023/01/29 03:46:07;;;;;;;3.72;2.97;;;-0.30;99.90;;;;;;4954218;28;20263;-70
2023/01/29 03:48:38;;;;;;;4.57;3.92;;;-0.30;99.90;;;;;;4954130;29;20208;-70
2023/01/29 03:51:15;;;;;;;8.13;4.43;;;-0.30;99.90;;;;;;4954610;29;20319;-70
2023/01/29 03:53:47;;;;;;;4.57;3.22;;;-0.30;99.90;;;;;;4954098;28;20208;-70
2023/01/29 03:56:32;;;;;;;6.35;3.38;;;-0.30;99.90;;;;;;4954359;29;20224;-70
2023/01/29 03:59:02;;;;;;;4.45;3.70;;;-0.30;99.90;;;;;;4953700;29;20802;-70
2023/01/29 04:01:38;;;;;;;3.97;3.50;;;-0.40;99.90;;;;;;4954159;29;20232;-70
2023/01/29 04:04:11;;;;;;;5.30;3.67;;;-0.40;99.90;;;;;;4954472;29;20691;-70
2023/01/29 04:06:41;;;;;;;7.88;3.83;;;-0.40;99.90;;;;;;4954006;29;20228;-70
2023/01/29 04:09:12;;;;;;;3.85;3.30;;;-0.40;99.90;;;;;;4953751;29;20204;-70
2023/01/29 04:11:44;;;;;;;3.67;3.25;;;-0.30;99.90;;;;;;4953951;29;20215;-70
2023/01/29 04:14:12;;;;;;;4.35;3.65;;;-0.30;99.90;;;;;;4954021;29;20201;-70
2023/01/29 04:16:45;;;;;;;4.25;3.10;;;-0.30;99.90;;;;;;4953700;29;20228;-70
2023/01/29 04:19:12;;;;;;;5.68;4.13;;;-0.30;99.90;;;;;;4953433;29;20212;-70
2023/01/29 04:21:39;;;;;;;4.97;4.45;;;-0.30;99.90;;;;;;4953591;29;20228;-70
2023/01/29 04:24:07;;;;;;;4.65;3.70;;;-0.30;99.90;;;;;;4953772;29;20205;-69
2023/01/29 04:26:55;;;;;;;4.03;3.50;;;-0.40;99.90;;;;;;4953661;29;20228;-70
2023/01/29 04:29:33;;;;;;;4.70;4.18;;;-0.40;99.90;;;;;;4953300;29;20232;-70
2023/01/29 04:32:10;;;;;;;3.38;2.97;;;-0.40;99.90;;;;;;4954032;29;20215;-70
2023/01/29 04:34:51;;;;;;;4.50;4.10;;;-0.40;99.90;;;;;;4953473;29;20212;-69
2023/01/29 04:37:28;;;;;;;4.45;3.10;;;-0.40;99.90;;;;;;4953766;29;20235;-70
2023/01/29 04:40:00;;;;;;;4.25;3.78;;;-0.40;99.90;;;;;;4952747;29;20239;-70
2023/01/29 04:42:30;;;;;;;4.57;4.18;;;-0.40;99.90;;;;;;4953458;29;20205;-70
2023/01/29 04:45:05;;;;;;;5.65;3.72;;;-0.40;99.90;;;;;;4953259;29;20205;-70
2023/01/29 04:47:41;;;;;;;5.85;3.70;;;-0.40;99.90;;;;;;4953390;29;20219;-70
2023/01/29 04:50:16;;;;;;;6.07;3.75;;;-0.40;99.90;;;;;;4952964;29;20196;-71
2023/01/29 04:52:50;;;;;;;5.05;3.70;;;-0.40;99.90;;;;;;4953095;29;20208;-70
2023/01/29 04:55:21;;;;;;;3.72;3.40;;;-0.40;99.90;;;;;;4953355;29;20228;-70
2023/01/29 04:57:53;;;;;;;3.42;3.13;;;-0.40;99.90;;;;;;4953049;29;20691;-70
2023/01/29 05:00:24;;;;;;;4.63;2.80;;;-0.40;99.90;;;;;;4952684;29;20271;-70
2023/01/29 05:02:54;;;;;;;4.38;3.88;;;-0.40;99.90;;;;;;4952900;29;20793;-70
2023/01/29 05:05:21;;;;;;;3.90;3.30;;;-0.40;99.90;;;;;;4952689;28;20224;-70
2023/01/29 05:07:48;;;;;;;5.50;3.75;;;-0.40;99.90;;;;;;4952915;29;20211;-70
2023/01/29 05:10:19;;;;;;;4.90;4.47;;;-0.50;99.90;;;;;;4952516;29;20204;-70
2023/01/29 05:12:51;;;;;;;3.72;3.25;;;-0.50;99.90;;;;;;4952896;29;20204;-70
2023/01/29 05:15:21;;;;;;;6.07;3.63;;;-0.50;99.90;;;;;;4952914;29;20228;-70
2023/01/29 05:17:48;;;;;;;4.47;3.20;;;-0.50;99.90;;;;;;4952744;29;20563;-70
2023/01/29 05:20:16;;;;;;;4.97;4.07;;;-0.40;99.90;;;;;;4952336;29;20609;-70
2023/01/29 05:22:45;;;;;;;5.03;4.10;;;-0.40;99.90;;;;;;4952687;29;20208;-70
2023/01/29 05:25:23;;;;;;;6.50;4.15;;;-0.40;99.90;;;;;;4952757;29;20229;-70
2023/01/29 05:28:03;;;;;;;6.65;3.63;;;-0.40;99.90;;;;;;4952640;29;20219;-70
2023/01/29 05:30:29;;;;;;;6.45;3.60;;;-0.40;99.90;;;;;;4952265;29;20287;-70
2023/01/29 05:32:56;;;;;;;4.57;4.18;;;-0.40;99.90;;;;;;4952499;29;20208;-70
2023/01/29 05:35:24;;;;;;;4.05;3.65;;;-0.40;99.90;;;;;;4952788;29;20259;-70
2023/01/29 05:37:51;;;;;;;4.25;3.80;;;-0.40;99.90;;;;;;4952565;29;20205;-70
2023/01/29 05:40:18;;;;;;;4.72;3.60;;;-0.40;99.90;;;;;;4952124;29;20670;-70
2023/01/29 05:42:44;;;;;;;4.75;2.95;;;-0.40;99.90;;;;;;4952412;29;20215;-70
2023/01/29 05:45:11;;;;;;;8.15;3.33;;;-0.50;99.90;;;;;;4952404;29;20243;-70
2023/01/29 05:47:38;;;;;;;5.70;4.90;;;-0.50;99.90;;;;;;4952345;29;20204;-70
2023/01/29 05:50:05;;;;;;;4.60;3.63;;;-0.50;99.90;;;;;;4951910;29;20212;-70
2023/01/29 05:52:33;;;;;;;3.88;3.53;;;-0.50;99.90;;;;;;4952558;29;20208;-70
2023/01/29 05:55:00;;;;;;;5.25;3.95;;;-0.50;99.90;;;;;;4951741;29;20192;-69
2023/01/29 05:57:27;;;;;;;6.22;4.60;;;-0.50;99.90;;;;;;4952156;29;20196;-69
2023/01/29 05:59:53;;;;;;;5.15;3.75;;;-0.50;99.90;;;;;;4951482;29;20571;-70
2023/01/29 06:02:20;;;;;;;6.55;4.03;;;-0.50;99.90;;;;;;4951655;29;20231;-69
2023/01/29 06:04:47;;;;;;;4.03;3.22;;;-0.50;99.90;;;;;;4950577;29;20690;-69
2023/01/29 06:07:14;;;;;;;4.45;3.30;;;-0.50;99.90;;;;;;4951349;29;20204;-70
2023/01/29 06:09:42;;;;;;;3.78;3.05;;;-0.50;99.90;;;;;;4950435;29;20201;-69
2023/01/29 06:12:09;;;;;;;4.30;3.03;;;-0.60;99.90;;;;;;4950670;29;20933;-70
2023/01/29 06:14:35;;;;;;;4.13;3.70;;;-0.60;99.90;;;;;;4951091;29;20223;-70
2023/01/29 06:17:03;;;;;;;3.75;3.45;;;-0.50;99.90;;;;;;4950940;28;20220;-70
2023/01/29 06:19:30;;;;;;;3.85;3.15;;;-0.50;99.90;;;;;;4951930;29;20287;-70
2023/01/29 06:21:57;;;;;;;5.30;3.65;;;-0.50;99.90;;;;;;4954905;29;20216;-70
2023/01/29 06:24:23;;;;;;;3.90;3.10;;;-0.50;99.90;;;;;;4955041;29;20205;-70
2023/01/29 06:26:51;;;;;;;5.30;3.70;;;-0.50;99.90;;;;;;4952103;29;20212;-69
2023/01/29 06:29:18;;;;;;;6.95;3.60;;;-0.40;99.90;;;;;;4953704;29;20200;-69
2023/01/29 06:31:45;;;;;;;4.82;3.92;;;-0.40;99.90;;;;;;4954634;29;20197;-70
2023/01/29 06:34:11;;;;;;;6.82;4.43;;;-0.40;99.90;;;;;;4954667;29;20200;-69
2023/01/29 06:36:38;;;;;;;6.95;4.72;;;-0.50;99.90;;;;;;4954564;29;20240;-70
2023/01/29 06:39:05;;;;;;;7.22;3.88;;;-0.50;99.90;;;;;;4953895;29;20268;-70
2023/01/29 06:41:32;;;;;;;6.30;4.43;;;-0.50;99.90;;;;;;4954392;29;20229;-69
2023/01/29 06:44:00;;;;;;;4.70;3.88;;;-0.50;99.90;;;;;;4954176;29;20200;-70
2023/01/29 06:46:26;;;;;;;4.30;3.72;;;-0.50;99.90;;;;;;4953880;29;20624;-70
2023/01/29 06:48:53;;;;;;;4.78;3.78;;;-0.50;99.90;;;;;;4953637;29;20576;-69
2023/01/29 06:51:20;;;;;;;4.28;3.45;;;-0.50;99.90;;;;;;4954043;29;20211;-69
2023/01/29 06:53:46;;;;;;;4.97;3.97;;;-0.50;99.90;;;;;;4954109;29;20200;-69
2023/01/29 06:56:13;;;;;;;5.85;4.00;;;-0.50;99.90;;;;;;4953914;29;20221;-69
2023/01/29 06:58:40;;;;;;;5.30;3.58;;;-0.50;99.90;;;;;;4953683;29;20197;-70
2023/01/29 07:01:10;;;;;;;5.05;4.32;;;-0.50;99.90;;;;;;4953831;29;20223;-69
2023/01/29 07:03:37;;;;;;;3.75;3.35;;;-0.40;99.90;;;;;;4953779;29;20937;-70
2023/01/29 07:06:05;;;;;;;6.82;3.63;;;-0.50;99.90;;;;;;4954050;29;20220;-70
2023/01/29 07:08:35;;;;;;;3.75;3.05;;;-0.50;99.90;;;;;;4950890;29;20588;-70
2023/01/29 07:11:02;;;;;;;4.18;3.28;;;-0.50;99.90;;;;;;4953960;29;20192;-69
2023/01/29 07:13:29;;;;;;;4.65;4.20;;;-0.50;99.90;;;;;;4953345;28;20200;-69
2023/01/29 07:15:59;;;;;;;6.57;3.80;;;-0.50;99.90;;;;;;4953603;29;20220;-69
2023/01/29 07:18:27;;;;;;;5.22;3.55;;;-0.50;99.90;;;;;;4952767;29;20228;-69
2023/01/29 07:20:54;;;;;;;4.03;3.30;;;-0.50;99.90;;;;;;4953584;29;20217;-70
2023/01/29 07:23:21;;;;;;;7.57;4.18;;;-0.50;99.90;;;;;;4954572;28;20196;-70
2023/01/29 07:25:48;;;;;;;5.25;3.70;;;-0.50;99.90;;;;;;4953486;29;20228;-71
2023/01/29 07:28:15;;;;;;;8.32;3.80;;;-0.50;99.90;;;;;;4952860;28;20196;-70
2023/01/29 07:30:42;;;;;;;9.10;5.38;;;-0.50;99.90;;;;;;4953247;29;20203;-71
2023/01/29 07:33:10;;;;;;;5.18;4.57;;;-0.50;99.90;;;;;;4953379;29;20204;-70
2023/01/29 07:35:39;;;;;;;3.85;3.42;;;-0.50;99.90;;;;;;4953192;29;20220;-70
2023/01/29 07:38:07;;;;;;;4.60;3.90;;;-0.50;99.90;;;;;;4953480;29;20212;-70
2023/01/29 07:40:33;;;;;;;6.95;4.15;;;-0.50;99.90;;;;;;4952870;28;20196;-70
2023/01/29 07:43:01;;;;;;;5.30;4.20;;;-0.40;99.90;;;;;;4953412;29;20199;-70
2023/01/29 07:45:28;;;;;;;4.20;3.70;;;-0.40;99.90;;;;;;4952892;28;20236;-70
2023/01/29 07:47:56;;;;;;;4.00;3.45;;;-0.50;99.90;;;;;;4953610;29;20199;-71
2023/01/29 07:50:23;;;;;;;5.78;4.30;;;-0.50;99.90;;;;;;4952993;29;20576;-68
2023/01/29 07:52:51;;;;;;;6.38;3.88;;;-0.50;99.90;;;;;;4953802;29;20201;-68
2023/01/29 07:55:18;;;;;;;4.85;4.35;;;-0.40;99.90;;;;;;4953531;29;20239;-69
2023/01/29 07:57:44;;;;;;;4.63;3.50;;;-0.40;99.90;;;;;;4953607;29;20691;-68
2023/01/29 08:00:13;;;;;;;6.00;4.50;;;-0.40;99.90;;;;;;4953061;29;20297;-68
2023/01/29 08:02:40;;;;;;;5.45;4.35;;;-0.30;99.90;;;;;;4953166;29;20228;-68
2023/01/29 08:05:08;;;;;;;5.47;4.25;;;-0.30;99.90;;;;;;4953607;29;20642;-69
2023/01/29 08:07:35;;;;;;;4.43;3.28;;;-0.20;99.90;;;;;;4953286;29;20204;-69
2023/01/29 08:10:03;;;;;;;5.07;4.57;;;-0.20;99.90;;;;;;4952799;29;20215;-69
2023/01/29 08:12:30;;;;;;;5.65;4.32;;;-0.20;99.90;;;;;;4952822;29;20205;-69
2023/01/29 08:14:56;;;;;;;4.95;3.88;;;-0.20;99.90;;;;;;4967745;28;20204;-69
2023/01/29 08:17:23;;;;;;;5.75;4.32;;;-0.10;99.90;;;;;;4964496;28;20212;-69
2023/01/29 08:19:50;;;;;;;5.78;3.90;;;-0.10;99.90;;;;;;4954114;28;20212;-70
2023/01/29 08:22:16;;;;;;;6.13;4.28;;;0.00;99.90;;;;;;4952206;29;20227;-69
2023/01/29 08:24:43;;;;;;;5.70;4.53;;;0.00;99.90;;;;;;4953095;28;20212;-69
2023/01/29 08:27:11;;;;;;;4.90;4.03;;;0.00;99.90;;;;;;4952858;29;20243;-70
2023/01/29 08:29:38;;;;;;;4.80;3.85;;;0.00;99.90;;;;;;4952588;29;20208;-70
2023/01/29 08:32:05;;;;;;;8.18;5.18;;;0.10;99.90;;;;;;4953129;29;20207;-70
2023/01/29 08:34:32;;;;;;;6.78;4.53;;;0.00;99.90;;;;;;4952847;29;20212;-70
2023/01/29 08:37:01;;;;;;;4.88;4.38;;;0.10;99.90;;;;;;4952117;28;20235;-70
2023/01/29 08:39:28;;;;;;;4.97;3.75;;;0.10;99.90;;;;;;4954923;28;20583;-69
2023/01/29 08:41:55;;;;;;;7.22;4.78;;;0.10;99.90;;;;;;4951710;28;20825;-69
2023/01/29 08:44:23;;;;;;;5.57;4.40;;;0.10;99.90;;;;;;4950700;28;20207;-70
2023/01/29 08:46:51;;;;;;;5.43;4.78;;;0.20;99.90;;;;;;4951802;29;20731;-70
2023/01/29 08:49:18;;;;;;;5.07;4.15;;;0.30;99.90;;;;;;4951915;28;20212;-70
2023/01/29 08:51:45;;;;;;;5.07;3.95;;;0.30;99.90;;;;;;4951697;29;20218;-70
2023/01/29 08:54:12;;;;;;;5.35;4.57;;;0.30;99.90;;;;;;4951706;29;20668;-69
2023/01/29 08:56:40;;;;;;;5.30;4.40;;;0.30;99.90;;;;;;4951582;29;20264;-69
2023/01/29 08:59:07;;;;;;;4.88;3.55;;;0.10;99.90;;;;;;4950692;28;20585;-69
2023/01/29 09:01:36;;;;;;;6.57;5.03;;;0.10;99.90;;;;;;4951604;29;20225;-69
2023/01/29 09:04:03;;;;;;;5.22;4.18;;;0.10;99.90;;;;;;4951224;29;20583;-70
2023/01/29 09:06:30;;;;;;;4.90;3.45;;;0.10;99.90;;;;;;4951258;29;20220;-70
2023/01/29 09:08:57;;;;;;;4.78;4.00;;;0.20;99.90;;;;;;4950508;28;20211;-70
2023/01/29 09:11:24;;;;;;;6.63;4.70;;;0.30;99.90;;;;;;4951179;28;20216;-69
2023/01/29 09:13:51;;;;;;;5.18;4.25;;;0.30;99.90;;;;;;4959968;28;20208;-69
2023/01/29 09:16:18;;;;;;;3.97;3.53;;;0.40;99.90;;;;;;4957282;28;20236;-69
2023/01/29 09:18:46;;;;;;;5.78;4.70;;;0.50;99.90;;;;;;4951245;28;20219;-70
2023/01/29 09:21:13;;;;;;;4.55;3.72;;;0.60;99.90;;;;;;4950951;29;20204;-70
2023/01/29 09:23:40;;;;;;;7.20;4.57;;;0.70;99.90;;;;;;4951054;29;20711;-69
2023/01/29 09:26:07;;;;;;;6.53;4.90;;;0.80;99.90;;;;;;4950853;28;20579;-70
2023/01/29 09:28:34;;;;;;;4.43;4.00;;;0.90;99.90;;;;;;4950577;29;20233;-68
2023/01/29 09:31:01;;;;;;;4.95;4.45;;;0.90;99.90;;;;;;4950674;29;20683;-69
2023/01/29 09:33:29;;;;;;;5.20;3.67;;;0.90;99.90;;;;;;4950931;29;20291;-69
2023/01/29 09:35:57;;;;;;;5.53;3.97;;;0.90;99.90;;;;;;4950802;28;20220;-69
2023/01/29 09:38:24;;;;;;;5.85;4.60;;;0.80;99.90;;;;;;4950599;29;20204;-70
2023/01/29 09:40:59;;;;;;;12.82;6.25;;;0.80;99.90;;;;;;4950695;29;20865;-70
2023/01/29 09:43:39;;;;;;;7.40;5.72;;;0.80;99.90;;;;;;4951099;29;20242;-69
2023/01/29 09:46:13;;;;;;;6.38;5.22;;;0.80;99.90;;;;;;4950126;28;20235;-69
2023/01/29 09:48:41;;;;;;;5.82;4.50;;;0.90;99.90;;;;;;4950563;29;20266;-69
2023/01/29 09:51:18;;;;;;;5.05;4.43;;;0.90;99.90;;;;;;4950543;28;20209;-69
2023/01/29 09:53:49;;;;;;;7.13;4.32;;;0.90;99.90;;;;;;4957007;28;20229;-69
2023/01/29 09:56:20;;;;;;;5.90;4.70;;;1.00;99.90;;;;;;4957790;28;20756;-69
2023/01/29 09:58:48;;;;;;;6.25;4.45;;;1.10;99.90;;;;;;4956662;28;20219;-68
2023/01/29 10:01:22;;;;;;;5.88;4.65;;;1.20;99.90;;;;;;4958116;29;20215;-69
2023/01/29 10:04:31;;;;;;;6.38;4.40;;;1.20;99.90;;;;;;4960121;28;20211;-68
2023/01/29 10:07:14;;;;;;;6.50;4.70;;;1.10;99.90;;;;;;4956486;29;20231;-69
2023/01/29 10:10:11;;;;;;;4.90;4.25;;;0.90;99.90;;;;;;4956471;28;20204;-69
2023/01/29 10:12:58;;;;;;;5.55;5.00;;;0.90;99.90;;;;;;4957085;28;20226;-69
2023/01/29 10:15:39;;;;;;;4.38;4.00;;;0.90;99.90;;;;;;4956812;29;20704;-69
2023/01/29 10:18:26;;;;;;;6.18;4.75;;;1.10;99.90;;;;;;4956553;28;20212;-69
2023/01/29 10:21:04;;;;;;;5.40;4.32;;;1.30;99.90;;;;;;4956772;28;20215;-70
2023/01/29 10:23:36;;;;;;;6.95;4.65;;;1.40;99.90;;;;;;4956859;28;20216;-70
2023/01/29 10:26:03;;;;;;;6.45;5.43;;;1.50;99.90;;;;;;4957350;28;20231;-70
2023/01/29 10:28:35;;;;;;;5.28;4.10;;;1.60;99.90;;;;;;4957166;28;20255;-69
2023/01/29 10:31:08;;;;;;;5.18;4.45;;;1.40;99.90;;;;;;4957673;28;20213;-70
2023/01/29 10:33:40;;;;;;;4.30;3.90;;;1.40;99.90;;;;;;4957315;28;21044;-70
2023/01/29 10:36:12;;;;;;;6.60;4.45;;;1.60;99.90;;;;;;4956763;28;20231;-70
2023/01/29 10:38:44;;;;;;;7.85;5.15;;;1.70;99.90;;;;;;4957187;29;20208;-69
2023/01/29 10:41:36;;;;;;;6.20;4.53;;;1.90;99.90;;;;;;4957562;28;20267;-69
2023/01/29 10:44:16;;;;;;;4.38;3.97;;;2.20;99.90;;;;;;4963102;28;20215;-69
2023/01/29 10:46:58;;;;;;;6.45;4.65;;;2.20;99.90;;;;;;4965980;28;20235;-69
2023/01/29 10:49:37;;;;;;;7.88;5.57;;;2.20;99.90;;;;;;4965971;28;20211;-69
2023/01/29 10:52:14;;;;;;;5.32;4.57;;;2.10;99.90;;;;;;4956344;28;20255;-69
2023/01/29 10:55:02;;;;;;;7.53;4.82;;;2.10;99.90;;;;;;4956075;28;21007;-69
2023/01/29 10:57:48;;;;;;;6.93;4.57;;;2.20;99.90;;;;;;4956262;28;20208;-69
2023/01/29 11:00:21;;;;;;;5.90;4.80;;;2.10;99.90;;;;;;4955348;29;20208;-69
2023/01/29 11:02:50;;;;;;;5.70;4.65;;;2.00;99.90;;;;;;4947361;28;20229;-68
2023/01/29 11:05:25;;;;;;;5.60;4.50;;;2.10;99.90;;;;;;4948724;29;20232;-68
2023/01/29 11:08:02;;;;;;;6.80;5.10;;;2.20;99.90;;;;;;4953561;28;20271;-69
2023/01/29 11:10:35;;;;;;;6.35;5.00;;;2.60;99.90;;;;;;4952622;28;20258;-69
2023/01/29 11:13:03;;;;;;;4.80;4.25;;;3.10;99.90;;;;;;4952986;29;20212;-70
2023/01/29 11:15:33;;;;;;;6.47;3.97;;;3.10;99.90;;;;;;4953163;29;20228;-69
2023/01/29 11:18:05;;;;;;;6.43;4.57;;;3.20;99.90;;;;;;4952919;28;20209;-69
2023/01/29 11:20:34;;;;;;;5.25;4.47;;;3.40;99.90;;;;;;4952578;28;20649;-69
2023/01/29 11:23:01;;;;;;;4.35;3.95;;;3.50;99.90;;;;;;4952905;28;20240;-70
2023/01/29 11:25:28;;;;;;;4.97;4.28;;;3.50;99.90;;;;;;4952626;29;20247;-70
2023/01/29 11:27:59;;;;;;;5.55;4.63;;;3.40;99.90;;;;;;4952985;29;20208;-70
2023/01/29 11:30:28;;;;;;;6.07;4.57;;;3.40;99.90;;;;;;4952179;28;20296;-70
2023/01/29 11:33:08;;;;;;;8.63;5.03;;;3.60;99.90;;;;;;4953037;29;20196;-69
2023/01/29 11:35:36;;;;;;;6.35;4.63;;;3.50;99.90;;;;;;4952213;28;20711;-69
2023/01/29 11:38:18;;;;;;;6.43;5.47;;;3.30;99.90;;;;;;4952641;28;20692;-68
2023/01/29 11:40:45;;;;;;;5.78;4.90;;;3.20;99.90;;;;;;4953451;29;20211;-68
2023/01/29 11:43:29;;;;;;;6.38;4.43;;;3.20;99.90;;;;;;4952964;28;20228;-69
2023/01/29 11:45:59;;;;;;;5.03;4.32;;;3.10;99.90;;;;;;4953020;28;20260;-68
2023/01/29 11:48:40;;;;;;;5.68;3.92;;;2.60;99.90;;;;;;4959640;28;20203;-69
2023/01/29 11:51:08;;;;;;;4.55;4.05;;;2.20;99.90;;;;;;4954189;28;20236;-68
2023/01/29 11:53:38;;;;;;;7.47;4.90;;;1.90;99.90;;;;;;4970938;28;20200;-69
2023/01/29 11:56:16;;;;;;;4.10;3.50;;;2.00;99.90;;;;;;4968346;28;20242;-69
2023/01/29 11:58:47;;;;;;;6.80;4.85;;;2.00;99.90;;;;;;4955245;28;20212;-69
2023/01/29 12:01:16;;;;;;;7.85;4.88;;;2.20;99.90;;;;;;4950560;28;20215;-69
2023/01/29 12:03:47;;;;;;;5.05;4.50;;;2.40;99.90;;;;;;4969336;28;20227;-68
2023/01/29 12:06:20;;;;;;;8.38;5.63;;;2.70;99.90;;;;;;4970252;28;20598;-69
2023/01/29 12:08:56;;;;;;;5.78;4.80;;;3.10;99.90;;;;;;4953231;28;20668;-69
2023/01/29 12:11:29;;;;;;;6.38;4.82;;;3.40;99.90;;;;;;4953402;29;20208;-69
2023/01/29 12:13:58;;;;;;;5.22;4.10;;;3.60;99.90;;;;;;4953050;29;20207;-69
2023/01/29 12:16:30;;;;;;;4.63;4.10;;;3.40;99.90;;;;;;4970906;28;20245;-69
2023/01/29 12:19:07;;;;;;;5.90;4.35;;;3.50;99.90;;;;;;4971765;28;20207;-69
2023/01/29 12:21:39;;;;;;;6.80;4.70;;;3.80;99.90;;;;;;4972406;28;20203;-68
2023/01/29 12:24:23;;;;;;;4.88;4.30;;;4.10;99.90;;;;;;4961621;28;20239;-68
2023/01/29 12:26:55;;;;;;;6.60;4.20;;;4.40;99.90;;;;;;4951949;28;20255;-68
2023/01/29 12:29:33;;;;;;;4.50;3.70;;;4.40;99.90;;;;;;4952219;29;20208;-68
2023/01/29 12:32:07;;;;;;;5.10;4.10;;;4.50;99.90;;;;;;4952491;29;20216;-67
2023/01/29 12:34:44;;;;;;;4.40;3.40;;;4.50;99.90;;;;;;4951248;28;20199;-68
2023/01/29 12:37:19;;;;;;;4.80;4.38;;;4.40;99.90;;;;;;4950257;28;20885;-70
2023/01/29 12:39:46;;;;;;;4.90;4.32;;;4.70;99.90;;;;;;4951270;29;20549;-68
2023/01/29 12:42:17;;;;;;;4.72;4.32;;;4.80;99.90;;;;;;4952234;28;20214;-69
2023/01/29 12:44:50;;;;;;;5.00;4.25;;;5.20;99.90;;;;;;4951755;29;20299;-68
2023/01/29 12:47:22;;;;;;;4.50;4.10;;;5.70;99.90;;;;;;4952584;29;20577;-68
2023/01/29 12:49:53;;;;;;;4.95;4.40;;;5.80;99.90;;;;;;4950587;28;20703;-67
2023/01/29 12:52:28;;;;;;;4.10;3.70;;;5.90;99.90;;;;;;4952175;29;20295;-67
2023/01/29 12:55:00;;;;;;;5.47;4.05;;;6.30;99.90;;;;;;4951978;29;20212;-70
2023/01/29 12:57:36;;;;;;;6.60;4.00;;;6.20;99.90;;;;;;4962162;28;20749;-70
2023/01/29 13:00:09;;;;;;;4.90;4.07;;;6.20;99.90;;;;;;4970525;28;20212;-69
2023/01/29 13:02:40;;;;;;;4.57;3.80;;;6.30;99.90;;;;;;4956361;28;20594;-70
2023/01/29 13:05:19;;;;;;;4.50;3.60;;;6.20;99.90;;;;;;4951712;29;20220;-70
2023/01/29 13:07:51;;;;;;;6.40;4.05;;;5.90;99.90;;;;;;4951935;29;20267;-70
2023/01/29 13:10:21;;;;;;;4.18;3.63;;;5.30;99.90;;;;;;4951244;29;20212;-69
2023/01/29 13:12:55;;;;;;;5.38;4.55;;;5.20;99.90;;;;;;4950948;29;20209;-70
2023/01/29 13:15:28;;;;;;;5.30;3.97;;;5.60;99.90;;;;;;4951319;29;20352;-70
2023/01/29 13:18:02;;;;;;;5.63;4.10;;;5.50;99.90;;;;;;4951355;28;20220;-69
2023/01/29 13:20:32;;;;;;;6.00;4.45;;;5.80;99.90;;;;;;4950951;28;20202;-70
2023/01/29 13:23:15;;;;;;;5.90;4.80;;;6.10;99.90;;;;;;4951320;28;20327;-69
2023/01/29 13:25:41;;;;;;;4.28;3.80;;;6.60;99.90;;;;;;4952148;29;20236;-70
2023/01/29 13:28:17;;;;;;;4.82;3.83;;;6.90;99.90;;;;;;4950263;28;20219;-69
2023/01/29 13:30:45;;;;;;;5.07;3.85;;;7.10;99.90;;;;;;4950763;29;20211;-70
2023/01/29 13:33:20;;;;;;;5.22;4.25;;;6.90;99.90;;;;;;4951600;28;20204;-69
2023/01/29 13:35:48;;;;;;;5.05;4.55;;;7.10;99.90;;;;;;4950180;28;20223;-70
2023/01/29 13:38:24;;;;;;;8.15;4.05;;;6.30;99.90;;;;;;4947829;28;20216;-70